Time;durP1;ratioP1;P1;durP2;ratioP2;P2;SDS_P1;SDS_P2;PMS_P1;PMS_P2;Temp;Humidity;BMP_temperature;BMP_pressure;BME280_temperature;BME280_humidity;BME280_pressure;Samples;Min_cycle;Max_cycle;Signal;HPM_P1;HPM_P2
2022/03/10 21:57:23;;;;;;;20.52;12.65;;;;;;;3.81;59.59;101824.41;5754480;21;15062796;-84
2022/03/10 22:00:02;;;;;;;17.38;12.38;;;;;;;3.75;59.42;101819.00;6331487;22;20025;-84
2022/03/10 22:05:38;;;;;;;18.35;12.18;;;;;;;3.70;59.25;101820.53;6336815;22;20025;-83
2022/03/10 22:08:09;;;;;;;22.15;13.30;;;;;;;3.66;59.66;101815.19;6360141;22;20049;-86
2022/03/10 22:10:42;;;;;;;19.63;12.88;;;;;;;3.53;59.94;101825.06;6332155;22;20038;-86
2022/03/10 22:13:21;;;;;;;19.05;12.82;;;;;;;3.58;59.25;101822.66;6358615;22;20022;-83
2022/03/10 22:15:53;;;;;;;20.95;10.68;;;;;;;3.53;59.33;101827.66;6313187;22;20022;-85
2022/03/10 22:18:23;;;;;;;17.67;11.40;;;;;;;3.51;59.56;101821.56;6360085;22;20122;-84
2022/03/10 22:20:52;;;;;;;20.48;12.75;;;;;;;3.47;59.56;101823.13;6333519;22;20026;-85
2022/03/10 22:23:23;;;;;;;18.17;11.25;;;;;;;3.41;60.05;101819.41;6310466;22;20094;-87
2022/03/10 22:25:53;;;;;;;18.40;11.30;;;;;;;3.36;60.22;101826.13;6335620;22;20022;-85
2022/03/10 22:28:28;;;;;;;18.27;12.20;;;;;;;3.31;60.39;101833.69;6360135;22;20270;-83
2022/03/10 22:30:55;;;;;;;14.27;10.63;;;;;;;3.26;60.11;101825.75;6358784;22;20022;-83
2022/03/10 22:33:23;;;;;;;18.08;11.20;;;;;;;3.23;60.00;101822.16;6357898;22;20262;-86
2022/03/10 22:35:51;;;;;;;16.98;11.02;;;;;;;3.18;60.20;101819.41;6359046;22;20055;-84
2022/03/10 22:38:20;;;;;;;21.98;12.32;;;;;;;3.17;60.14;101825.41;6332201;22;20045;-82
2022/03/10 22:40:48;;;;;;;23.35;12.07;;;;;;;3.11;60.07;101818.25;6300134;22;20027;-85
2022/03/10 22:43:15;;;;;;;23.52;12.35;;;;;;;3.06;60.41;101819.75;6322399;22;20389;-84
2022/03/10 22:45:45;;;;;;;19.90;11.45;;;;;;;3.05;60.21;101818.03;6298797;22;20076;-85
2022/03/10 22:48:14;;;;;;;20.00;11.65;;;;;;;3.02;60.36;101822.19;6323354;22;20018;-86
2022/03/10 22:56:14;;;;;;;18.63;10.55;;;;;;;2.87;60.76;101819.84;6300777;22;20019;-85
2022/03/10 22:58:41;;;;;;;17.98;11.48;;;;;;;2.80;60.84;101817.00;6320938;22;20049;-84
2022/03/10 23:01:08;;;;;;;16.75;10.30;;;;;;;2.75;60.57;101815.94;6317417;22;20027;-85
2022/03/10 23:03:35;;;;;;;18.42;10.90;;;;;;;2.69;61.08;101819.97;6319190;22;20027;-85
2022/03/10 23:08:46;;;;;;;17.38;10.98;;;;;;;2.56;60.99;101813.41;6298202;22;20015;-83
2022/03/10 23:11:15;;;;;;;19.50;12.25;;;;;;;2.50;61.65;101815.72;6294386;22;20020;-83
2022/03/10 23:13:43;;;;;;;17.88;11.07;;;;;;;2.49;61.25;101812.25;6291255;22;20054;-83
2022/03/10 23:16:10;;;;;;;16.55;9.65;;;;;;;2.47;61.54;101808.72;6289982;22;20026;-84
2022/03/10 23:18:38;;;;;;;17.83;11.48;;;;;;;2.43;61.67;101818.03;6316706;22;20374;-85
2022/03/10 23:21:07;;;;;;;18.33;10.35;;;;;;;2.42;61.11;101812.78;6317244;22;20011;-84
2022/03/10 23:23:36;;;;;;;14.63;10.45;;;;;;;2.35;61.20;101811.66;6318843;22;20457;-85
2022/03/10 23:26:06;;;;;;;18.70;10.52;;;;;;;2.34;61.27;101809.00;6292927;22;20323;-82
2022/03/10 23:28:32;;;;;;;20.58;11.60;;;;;;;2.28;61.47;101807.03;6292241;22;20011;-82
2022/03/10 23:31:00;;;;;;;15.75;11.00;;;;;;;2.23;61.93;101819.75;6290157;22;20019;-86
2022/03/10 23:33:27;;;;;;;19.55;10.20;;;;;;;2.20;61.61;101817.00;6289757;22;20030;-85
2022/03/10 23:35:53;;;;;;;18.92;11.20;;;;;;;2.18;61.89;101812.59;6315726;22;20331;-84
2022/03/10 23:38:23;;;;;;;15.38;10.05;;;;;;;2.12;61.96;101806.34;6316460;22;20023;-84
2022/03/10 23:40:49;;;;;;;21.33;12.18;;;;;;;2.04;62.42;101812.88;6317307;22;20023;-84
2022/03/10 23:43:16;;;;;;;18.38;10.82;;;;;;;1.99;62.30;101804.03;6289415;22;20015;-84
2022/03/10 23:45:44;;;;;;;16.35;9.88;;;;;;;1.95;62.02;101799.56;6316828;22;20405;-84
2022/03/10 23:48:17;;;;;;;16.38;11.20;;;;;;;1.93;61.93;101802.06;6314868;22;20023;-85
2022/03/10 23:50:44;;;;;;;21.85;10.77;;;;;;;1.90;61.89;101796.75;6316558;22;20015;-84
2022/03/10 23:53:14;;;;;;;16.45;10.00;;;;;;;1.89;61.72;101802.75;6291541;22;20019;-85
2022/03/10 23:55:55;;;;;;;15.60;9.10;;;;;;;1.86;62.20;101800.03;6292504;22;20078;-85
2022/03/10 23:58:24;;;;;;;18.17;10.80;;;;;;;1.79;62.06;101795.41;6295442;22;20364;-85
